createdAt,value
2024-01-28T00:02:03.253Z,3.10
2024-01-28T00:04:30.822Z,3.33
2024-01-28T00:06:58.380Z,3.20
2024-01-28T00:09:25.919Z,3.80
2024-01-28T00:11:53.429Z,3.10
2024-01-28T00:14:20.863Z,3.07
2024-01-28T00:16:50.088Z,3.10
2024-01-28T00:19:17.995Z,2.97
2024-01-28T00:21:45.763Z,3.37
2024-01-28T00:24:13.357Z,3.17
2024-01-28T00:26:41.441Z,2.97
2024-01-28T00:29:09.249Z,3.20
2024-01-28T00:31:37.183Z,2.97
2024-01-28T00:34:06.326Z,3.00
2024-01-28T00:36:34.022Z,3.23
2024-01-28T00:39:01.548Z,3.13
2024-01-28T00:41:30.755Z,2.90
2024-01-28T00:43:59.376Z,3.20
2024-01-28T00:46:26.992Z,3.10
2024-01-28T00:48:54.524Z,2.70
2024-01-28T00:51:23.416Z,3.00
2024-01-28T00:53:50.912Z,3.00
2024-01-28T00:56:18.724Z,2.90
2024-01-28T00:58:46.563Z,2.67
2024-01-28T01:01:14.564Z,2.97
2024-01-28T01:03:42.194Z,3.47
2024-01-28T01:06:09.790Z,3.10
2024-01-28T01:08:38.610Z,2.90
2024-01-28T01:11:08.396Z,3.10
2024-01-28T01:13:36.031Z,3.27
2024-01-28T01:16:03.924Z,3.00
2024-01-28T01:18:31.716Z,3.63
2024-01-28T01:20:59.251Z,3.10
2024-01-28T01:23:27.064Z,3.00
2024-01-28T01:25:56.051Z,3.27
2024-01-28T01:28:23.810Z,3.20
2024-01-28T01:30:51.437Z,3.03
2024-01-28T01:33:19.275Z,3.10
2024-01-28T01:35:46.785Z,2.97
2024-01-28T01:38:14.365Z,2.70
2024-01-28T01:40:41.938Z,3.67
2024-01-28T01:43:11.160Z,3.37
2024-01-28T01:45:39.224Z,2.93
2024-01-28T01:48:07.616Z,3.17
2024-01-28T01:50:35.651Z,2.67
2024-01-28T01:53:03.485Z,3.07
2024-01-28T01:55:31.113Z,3.20
2024-01-28T01:57:59.360Z,2.60
2024-01-28T02:00:28.801Z,3.20
2024-01-28T02:02:56.542Z,2.93
2024-01-28T02:05:24.195Z,2.93
2024-01-28T02:07:51.888Z,2.67
2024-01-28T02:10:19.521Z,2.60
2024-01-28T02:12:50.819Z,2.50
2024-01-28T02:15:18.837Z,2.97
2024-01-28T02:17:47.673Z,2.90
2024-01-28T02:20:15.390Z,3.00
2024-01-28T02:22:42.831Z,2.80
2024-01-28T02:25:12.110Z,3.03
2024-01-28T02:27:41.461Z,2.30
2024-01-28T02:30:10.154Z,2.47
2024-01-28T02:32:37.922Z,2.53
2024-01-28T02:35:06.041Z,2.77
2024-01-28T02:37:33.551Z,2.70
2024-01-28T02:40:00.981Z,2.90
2024-01-28T02:42:29.842Z,2.40
2024-01-28T02:44:57.365Z,2.50
2024-01-28T02:47:24.969Z,2.77
2024-01-28T02:49:52.828Z,2.40
2024-01-28T02:52:20.746Z,2.60
2024-01-28T02:54:48.287Z,2.77
2024-01-28T02:57:16.140Z,2.73
2024-01-28T02:59:44.976Z,2.73
2024-01-28T03:02:12.407Z,2.30
2024-01-28T03:04:40.579Z,2.43
2024-01-28T03:07:08.448Z,3.00
2024-01-28T03:09:36.039Z,2.90
2024-01-28T03:12:03.546Z,2.87
2024-01-28T03:14:31.005Z,2.50
2024-01-28T03:16:59.833Z,2.30
2024-01-28T03:19:27.396Z,2.43
2024-01-28T03:21:54.983Z,2.43
2024-01-28T03:24:23.738Z,2.60
2024-01-28T03:26:51.184Z,2.40
2024-01-28T03:29:18.707Z,2.67
2024-01-28T03:31:47.654Z,2.80
2024-01-28T03:34:16.628Z,2.00
2024-01-28T03:36:44.257Z,2.37
2024-01-28T03:39:15.238Z,2.20
2024-01-28T03:41:42.753Z,2.30
2024-01-28T03:44:10.232Z,2.67
2024-01-28T03:46:39.578Z,2.17
2024-01-28T03:49:07.343Z,2.23
2024-01-28T03:51:36.245Z,2.30
2024-01-28T03:54:03.746Z,2.13
2024-01-28T03:56:31.210Z,2.60
2024-01-28T03:58:58.797Z,2.10
2024-01-28T04:01:33.528Z,2.23
2024-01-28T04:04:01.432Z,2.73
2024-01-28T04:06:28.941Z,2.20
2024-01-28T04:08:57.836Z,2.03
2024-01-28T04:11:26.276Z,1.90
2024-01-28T04:13:54.524Z,2.30
2024-01-28T04:16:22.670Z,2.53
2024-01-28T04:18:50.361Z,2.10
2024-01-28T04:21:18.000Z,2.53
2024-01-28T04:23:47.879Z,2.23
2024-01-28T04:26:16.902Z,2.00
2024-01-28T04:28:44.502Z,2.03
2024-01-28T04:31:14.122Z,2.30
2024-01-28T04:33:42.824Z,2.30
2024-01-28T04:36:10.418Z,2.10
2024-01-28T04:38:37.931Z,1.83
2024-01-28T04:41:05.894Z,2.30
2024-01-28T04:43:34.749Z,2.20
2024-01-28T04:46:02.190Z,2.17
2024-01-28T04:48:29.690Z,2.03
2024-01-28T04:50:57.245Z,2.30
2024-01-28T04:53:24.678Z,2.13
2024-01-28T04:55:52.096Z,2.27
2024-01-28T04:58:19.572Z,2.13
2024-01-28T05:00:48.447Z,2.00
2024-01-28T05:03:16.222Z,2.07
2024-01-28T05:05:43.738Z,2.23
2024-01-28T05:08:11.244Z,1.90
2024-01-28T05:10:39.659Z,2.20
2024-01-28T05:13:07.123Z,2.20
2024-01-28T05:15:34.643Z,2.00
2024-01-28T05:18:03.602Z,2.20
2024-01-28T05:20:31.161Z,2.10
2024-01-28T05:23:00.808Z,2.33
2024-01-28T05:25:29.208Z,2.83
2024-01-28T05:27:56.726Z,2.00
2024-01-28T05:30:24.186Z,2.20
2024-01-28T05:32:51.699Z,1.97
2024-01-28T05:35:20.598Z,2.30
2024-01-28T05:37:48.096Z,1.67
2024-01-28T05:40:15.534Z,1.90
2024-01-28T05:42:43.603Z,2.10
2024-01-28T05:45:11.115Z,1.70
2024-01-28T05:47:38.727Z,1.80
2024-01-28T05:50:06.596Z,2.10
2024-01-28T05:52:35.392Z,1.70
2024-01-28T05:55:04.037Z,2.10
2024-01-28T05:57:31.817Z,2.00
2024-01-28T05:59:59.302Z,2.17
2024-01-28T06:02:26.985Z,2.03
2024-01-28T06:04:54.521Z,2.50
2024-01-28T06:07:22.121Z,1.90
2024-01-28T06:09:50.980Z,2.20
2024-01-28T06:12:19.656Z,1.90
2024-01-28T06:14:47.305Z,2.00
2024-01-28T06:17:16.145Z,2.30
2024-01-28T06:19:45.786Z,1.87
2024-01-28T06:22:13.406Z,2.00
2024-01-28T06:24:43.212Z,1.80
2024-01-28T06:27:12.039Z,2.10
2024-01-28T06:29:39.493Z,2.27
2024-01-28T06:32:07.316Z,2.33
2024-01-28T06:34:35.031Z,2.13
2024-01-28T06:37:02.965Z,2.10
2024-01-28T06:39:30.479Z,1.97
2024-01-28T06:41:57.943Z,1.97
2024-01-28T06:44:26.966Z,2.33
2024-01-28T06:46:54.403Z,2.50
2024-01-28T06:49:22.298Z,2.20
2024-01-28T06:51:49.923Z,2.10
2024-01-28T06:54:19.795Z,2.30
2024-01-28T06:56:47.545Z,1.73
2024-01-28T06:59:14.981Z,2.30
2024-01-28T07:01:46.232Z,2.10
2024-01-28T07:04:14.034Z,2.60
2024-01-28T07:06:41.622Z,2.13
2024-01-28T07:09:09.393Z,2.30
2024-01-28T07:11:36.926Z,2.07
2024-01-28T07:14:04.823Z,2.20
2024-01-28T07:16:33.387Z,2.47
2024-01-28T07:19:02.364Z,2.50
2024-01-28T07:21:29.849Z,2.50
2024-01-28T07:23:57.425Z,2.37
2024-01-28T07:26:26.019Z,2.00
2024-01-28T07:28:53.768Z,2.03
2024-01-28T07:31:21.250Z,2.23
2024-01-28T07:33:49.802Z,1.90
2024-01-28T07:36:18.678Z,2.07
2024-01-28T07:38:46.148Z,1.80
2024-01-28T07:41:15.830Z,2.07
2024-01-28T07:43:43.405Z,2.10
2024-01-28T07:46:11.053Z,2.43
2024-01-28T07:48:38.787Z,1.70
2024-01-28T07:51:06.811Z,1.90
2024-01-28T07:53:35.625Z,2.10
2024-01-28T07:56:04.097Z,2.00
2024-01-28T07:58:31.684Z,2.70
2024-01-28T08:00:59.150Z,2.17
2024-01-28T08:03:26.738Z,2.40
2024-01-28T08:05:54.284Z,2.70
2024-01-28T08:08:21.773Z,2.20
2024-01-28T08:10:51.204Z,2.30
2024-01-28T08:13:20.910Z,1.97
2024-01-28T08:15:48.438Z,1.93
2024-01-28T08:18:16.252Z,2.10
2024-01-28T08:20:43.849Z,2.03
2024-01-28T08:23:11.307Z,2.30
2024-01-28T08:25:38.910Z,2.03
2024-01-28T08:28:07.987Z,2.23
2024-01-28T08:30:35.482Z,2.80
2024-01-28T08:33:03.476Z,2.47
2024-01-28T08:35:32.830Z,2.10
2024-01-28T08:38:00.514Z,2.13
2024-01-28T08:40:27.964Z,2.27
2024-01-28T08:42:55.508Z,1.93
2024-01-28T08:45:24.529Z,2.20
2024-01-28T08:47:52.160Z,2.27
2024-01-28T08:50:19.630Z,2.40
2024-01-28T08:52:47.184Z,2.17
2024-01-28T08:55:14.662Z,2.00
2024-01-28T08:57:42.129Z,2.50
2024-01-28T09:00:13.066Z,2.20
2024-01-28T09:02:42.053Z,2.40
2024-01-28T09:05:11.577Z,2.27
2024-01-28T09:07:39.250Z,2.00
2024-01-28T09:10:10.956Z,2.40
2024-01-28T09:12:39.005Z,2.00
2024-01-28T09:15:07.022Z,2.40
2024-01-28T09:17:34.604Z,2.37
2024-01-28T09:20:03.840Z,2.33
2024-01-28T09:22:34.294Z,2.27
2024-01-28T09:25:01.990Z,2.97
2024-01-28T09:27:30.236Z,2.40
2024-01-28T09:29:57.813Z,2.30
2024-01-28T09:32:26.131Z,2.30
2024-01-28T09:34:54.000Z,2.30
2024-01-28T09:37:22.922Z,2.57
2024-01-28T09:39:50.658Z,2.10
2024-01-28T09:42:18.994Z,2.80
2024-01-28T09:44:46.554Z,2.40
2024-01-28T09:47:14.428Z,2.77
2024-01-28T09:49:43.047Z,2.50
2024-01-28T09:52:11.982Z,2.73
2024-01-28T09:54:41.081Z,2.10
2024-01-28T09:57:10.120Z,2.57
2024-01-28T09:59:38.000Z,2.23
2024-01-28T10:02:06.237Z,2.53
2024-01-28T10:04:34.360Z,2.33
2024-01-28T10:07:02.454Z,2.40
2024-01-28T10:09:30.397Z,2.40
2024-01-28T10:12:01.440Z,2.40
2024-01-28T10:14:29.443Z,2.33
2024-01-28T10:16:58.777Z,2.47
2024-01-28T10:19:26.467Z,2.27
2024-01-28T10:21:54.503Z,2.50
2024-01-28T10:24:22.106Z,2.60
2024-01-28T10:26:49.602Z,2.20
2024-01-28T10:29:18.783Z,2.00
2024-01-28T10:31:46.277Z,2.20
2024-01-28T10:34:13.980Z,2.03
2024-01-28T10:36:45.321Z,2.57
2024-01-28T10:39:15.417Z,2.53
2024-01-28T10:41:44.920Z,2.47
2024-01-28T10:44:14.778Z,2.40
2024-01-28T10:46:45.441Z,2.10
2024-01-28T10:49:13.944Z,2.40
2024-01-28T10:51:42.048Z,2.43
2024-01-28T10:54:10.189Z,2.73
2024-01-28T10:56:38.942Z,2.40
2024-01-28T10:59:06.625Z,2.40
2024-01-28T11:01:35.333Z,2.23
2024-01-28T11:04:05.034Z,2.47
2024-01-28T11:06:33.088Z,2.70
2024-01-28T11:09:00.910Z,2.23
2024-01-28T11:11:28.579Z,2.13
2024-01-28T11:13:57.465Z,2.47
2024-01-28T11:16:24.905Z,2.23
2024-01-28T11:18:56.934Z,2.67
2024-01-28T11:21:26.225Z,2.20
2024-01-28T11:23:55.027Z,2.63
2024-01-28T11:26:22.566Z,2.40
2024-01-28T11:28:50.619Z,2.70
2024-01-28T11:31:25.179Z,1.90
2024-01-28T11:33:53.767Z,2.43
2024-01-28T11:36:26.733Z,1.90
2024-01-28T11:39:01.904Z,2.13
2024-01-28T11:41:32.445Z,2.03
2024-01-28T11:44:00.699Z,2.10
2024-01-28T11:46:28.646Z,2.30
2024-01-28T11:48:56.260Z,2.00
2024-01-28T11:51:24.452Z,2.23
2024-01-28T11:53:52.008Z,2.63
2024-01-28T11:56:20.887Z,2.50
2024-01-28T11:58:48.413Z,2.17
2024-01-28T12:01:15.942Z,2.40
2024-01-28T12:03:43.638Z,2.80
2024-01-28T12:06:11.146Z,2.20
2024-01-28T12:08:41.154Z,2.40
2024-01-28T12:11:08.877Z,2.20
2024-01-28T12:13:37.749Z,2.00
2024-01-28T12:16:07.035Z,2.07
2024-01-28T12:18:35.046Z,1.90
2024-01-28T12:21:02.913Z,2.00
2024-01-28T12:23:31.107Z,2.10
2024-01-28T12:25:58.646Z,2.00
2024-01-28T12:28:26.308Z,2.07
2024-01-28T12:30:55.834Z,2.00
2024-01-28T12:33:23.628Z,2.10
2024-01-28T12:35:51.188Z,2.07
2024-01-28T12:38:18.622Z,2.00
2024-01-28T12:40:46.338Z,2.60
2024-01-28T12:43:13.956Z,2.10
2024-01-28T12:45:41.468Z,2.00
2024-01-28T12:48:10.448Z,2.47
2024-01-28T12:50:37.943Z,2.00
2024-01-28T12:53:06.150Z,2.23
2024-01-28T12:55:33.675Z,1.80
2024-01-28T12:58:01.168Z,2.00
2024-01-28T13:00:28.670Z,2.00
2024-01-28T13:02:56.230Z,2.00
2024-01-28T13:05:25.134Z,2.17
2024-01-28T13:07:52.642Z,1.90
2024-01-28T13:10:20.305Z,2.03
2024-01-28T13:12:47.937Z,2.00
2024-01-28T13:15:15.390Z,2.00
2024-01-28T13:17:43.552Z,2.10
2024-01-28T13:20:12.476Z,2.27
2024-01-28T13:22:45.428Z,2.00
2024-01-28T13:25:14.346Z,1.50
2024-01-28T13:27:42.151Z,2.00
2024-01-28T13:30:10.194Z,1.50
2024-01-28T13:32:39.234Z,1.97
2024-01-28T13:35:07.514Z,1.97
2024-01-28T13:37:35.260Z,1.67
2024-01-28T13:40:04.160Z,1.87
2024-01-28T13:42:31.825Z,2.00
2024-01-28T13:44:59.461Z,2.00
2024-01-28T13:47:26.983Z,1.73
2024-01-28T13:49:56.550Z,2.17
2024-01-28T13:52:24.195Z,1.80
2024-01-28T13:54:51.682Z,1.93
2024-01-28T13:57:21.970Z,2.10
2024-01-28T13:59:49.547Z,1.87
2024-01-28T14:02:16.990Z,1.60
2024-01-28T14:04:44.598Z,1.63
2024-01-28T14:07:12.149Z,1.93
2024-01-28T14:09:39.995Z,1.83
2024-01-28T14:12:09.715Z,1.90
2024-01-28T14:14:38.589Z,1.73
2024-01-28T14:17:06.211Z,1.63
2024-01-28T14:19:33.722Z,1.80
2024-01-28T14:22:01.241Z,1.70
2024-01-28T14:24:28.687Z,1.70
2024-01-28T14:26:56.140Z,1.60
2024-01-28T14:29:26.321Z,2.00
2024-01-28T14:31:56.102Z,1.67
2024-01-28T14:34:23.859Z,1.50
2024-01-28T14:36:51.378Z,1.70
2024-01-28T14:39:18.913Z,2.10
2024-01-28T14:41:48.749Z,2.00
2024-01-28T14:44:17.508Z,1.93
2024-01-28T14:46:44.998Z,1.90
2024-01-28T14:49:13.999Z,1.70
2024-01-28T14:51:41.520Z,1.70
2024-01-28T14:54:09.817Z,1.70
2024-01-28T14:56:37.550Z,1.90
2024-01-28T14:59:05.020Z,1.83
2024-01-28T15:01:32.605Z,1.83
2024-01-28T15:04:00.263Z,1.87
2024-01-28T15:06:29.153Z,2.13
2024-01-28T15:08:57.469Z,1.83
2024-01-28T15:11:25.019Z,2.10
2024-01-28T15:13:52.794Z,1.70
2024-01-28T15:16:20.858Z,1.90
2024-01-28T15:18:48.546Z,1.90
2024-01-28T15:21:17.318Z,1.90
2024-01-28T15:23:46.345Z,1.50
2024-01-28T15:26:13.867Z,1.80
2024-01-28T15:28:41.341Z,1.80
2024-01-28T15:31:09.122Z,1.90
2024-01-28T15:33:36.861Z,2.17
2024-01-28T15:36:04.693Z,2.00
2024-01-28T15:38:32.258Z,2.03
2024-01-28T15:41:01.221Z,2.00
2024-01-28T15:43:28.806Z,1.90
2024-01-28T15:45:56.933Z,2.20
2024-01-28T15:48:24.979Z,2.00
2024-01-28T15:50:52.521Z,1.60
2024-01-28T15:53:20.033Z,2.13
2024-01-28T15:55:47.596Z,1.70
2024-01-28T15:58:16.645Z,3.27
2024-01-28T16:00:44.230Z,3.00
2024-01-28T16:03:11.688Z,2.00
2024-01-28T16:05:40.575Z,2.00
2024-01-28T16:08:09.111Z,2.13
2024-01-28T16:10:36.602Z,2.00
2024-01-28T16:13:04.792Z,1.77
2024-01-28T16:15:33.670Z,2.00
2024-01-28T16:18:01.939Z,2.00
2024-01-28T16:20:29.488Z,1.87
2024-01-28T16:22:59.878Z,1.90
2024-01-28T16:25:29.402Z,1.80
2024-01-28T16:27:57.965Z,1.77
2024-01-28T16:30:25.683Z,1.80
2024-01-28T16:32:54.889Z,2.03
2024-01-28T16:35:22.608Z,1.90
2024-01-28T16:37:51.125Z,2.10
2024-01-28T16:40:19.014Z,2.27
2024-01-28T16:42:47.909Z,2.10
2024-01-28T16:45:17.850Z,2.17
2024-01-28T16:47:45.905Z,2.00
2024-01-28T16:50:15.166Z,2.10
2024-01-28T16:52:42.883Z,2.13
2024-01-28T16:55:10.733Z,2.00
2024-01-28T16:57:38.619Z,2.20
2024-01-28T17:00:06.702Z,2.30
2024-01-28T17:02:34.219Z,2.27
2024-01-28T17:05:04.532Z,2.20
2024-01-28T17:07:33.954Z,1.90
2024-01-28T17:10:01.836Z,2.27
2024-01-28T17:12:30.268Z,2.20
2024-01-28T17:14:58.022Z,2.30
2024-01-28T17:17:25.863Z,2.17
2024-01-28T17:19:53.468Z,2.17
2024-01-28T17:22:20.991Z,2.30
2024-01-28T17:24:49.898Z,1.90
2024-01-28T17:27:17.409Z,1.90
2024-01-28T17:29:44.990Z,2.00
2024-01-28T17:32:12.551Z,2.20
2024-01-28T17:34:40.134Z,2.27
2024-01-28T17:37:07.822Z,1.90
2024-01-28T17:39:35.401Z,2.17
2024-01-28T17:42:04.290Z,2.20
2024-01-28T17:44:31.803Z,2.10
2024-01-28T17:46:59.308Z,2.70
2024-01-28T17:49:26.883Z,2.00
2024-01-28T17:51:54.654Z,2.07
2024-01-28T17:54:22.244Z,3.00
2024-01-28T17:56:50.439Z,2.40
2024-01-28T17:59:19.316Z,2.27
2024-01-28T18:01:47.083Z,3.90
2024-01-28T18:04:14.804Z,4.30
2024-01-28T18:06:42.355Z,3.37
2024-01-28T18:09:10.129Z,2.57
2024-01-28T18:11:37.738Z,2.53
2024-01-28T18:14:05.297Z,2.40
2024-01-28T18:16:34.801Z,2.20
2024-01-28T18:19:02.323Z,2.30
2024-01-28T18:21:29.829Z,1.97
2024-01-28T18:23:56.301Z,2.70
2024-01-28T18:26:25.383Z,2.20
2024-01-28T18:28:52.926Z,2.30
2024-01-28T18:31:20.555Z,2.50
2024-01-28T18:33:50.585Z,2.10
2024-01-28T18:36:19.594Z,2.57
2024-01-28T18:38:48.604Z,2.87
2024-01-28T18:41:16.095Z,2.83
2024-01-28T18:43:45.270Z,2.60
2024-01-28T18:46:12.901Z,2.63
2024-01-28T18:48:40.644Z,2.60
2024-01-28T18:51:09.482Z,2.43
2024-01-28T18:53:37.209Z,2.10
2024-01-28T18:56:04.826Z,2.70
2024-01-28T18:58:32.282Z,2.93
2024-01-28T19:00:59.910Z,3.07
2024-01-28T19:03:27.495Z,2.80
2024-01-28T19:05:55.111Z,3.00
2024-01-28T19:08:24.463Z,3.50
2024-01-28T19:10:52.582Z,2.37
2024-01-28T19:13:20.638Z,3.40
2024-01-28T19:15:49.090Z,2.70
2024-01-28T19:18:16.986Z,2.40
2024-01-28T19:20:44.614Z,2.57
2024-01-28T19:23:12.337Z,2.50
2024-01-28T19:25:41.129Z,2.83
2024-01-28T19:28:08.713Z,2.50
2024-01-28T19:30:36.386Z,2.40
2024-01-28T19:33:04.030Z,2.50
2024-01-28T19:35:31.610Z,2.47
2024-01-28T19:37:59.172Z,2.43
2024-01-28T19:40:26.687Z,2.57
2024-01-28T19:42:55.587Z,3.40
2024-01-28T19:45:23.237Z,3.50
2024-01-28T19:47:50.839Z,4.03
2024-01-28T19:50:18.321Z,2.57
2024-01-28T19:52:45.762Z,2.80
2024-01-28T19:55:13.247Z,3.00
2024-01-28T19:57:40.731Z,2.50
2024-01-28T20:00:12.955Z,2.30
2024-01-28T20:02:40.718Z,3.00
2024-01-28T20:05:08.841Z,2.57
2024-01-28T20:07:36.917Z,2.23
2024-01-28T20:10:04.875Z,2.40
2024-01-28T20:12:32.566Z,2.50
2024-01-28T20:15:00.088Z,2.20
2024-01-28T20:17:29.482Z,2.10
2024-01-28T20:19:58.741Z,2.50
2024-01-28T20:22:26.280Z,2.70
2024-01-28T20:24:55.427Z,2.40
2024-01-28T20:27:24.462Z,2.37
2024-01-28T20:29:51.989Z,4.00
2024-01-28T20:32:19.454Z,3.97
2024-01-28T20:34:48.385Z,3.13
2024-01-28T20:37:15.941Z,3.20
2024-01-28T20:39:43.473Z,3.07
2024-01-28T20:42:11.667Z,2.90
2024-01-28T20:44:39.313Z,2.73
2024-01-28T20:47:11.013Z,2.70
2024-01-28T20:49:40.975Z,2.63
2024-01-28T20:52:09.938Z,2.50
2024-01-28T20:54:37.561Z,2.30
2024-01-28T20:57:08.926Z,2.30
2024-01-28T20:59:38.302Z,2.37
2024-01-28T21:02:06.771Z,2.50
2024-01-28T21:04:34.986Z,2.43
2024-01-28T21:07:02.576Z,2.70
2024-01-28T21:09:31.539Z,3.13
2024-01-28T21:11:59.010Z,2.87
2024-01-28T21:14:26.576Z,2.87
2024-01-28T21:16:55.370Z,2.83
2024-01-28T21:19:28.871Z,2.40
2024-01-28T21:21:58.308Z,2.40
2024-01-28T21:24:26.550Z,3.00
2024-01-28T21:26:55.501Z,3.87
2024-01-28T21:29:24.188Z,3.43
2024-01-28T21:31:51.800Z,4.90
2024-01-28T21:34:19.501Z,4.90
2024-01-28T21:36:47.536Z,3.00
2024-01-28T21:39:15.725Z,3.30
2024-01-28T21:41:43.278Z,3.93
2024-01-28T21:44:12.161Z,4.77
2024-01-28T21:46:39.796Z,4.40
2024-01-28T21:49:07.550Z,3.80
2024-01-28T21:51:36.392Z,3.10
2024-01-28T21:54:03.879Z,3.60
2024-01-28T21:56:31.535Z,2.80
2024-01-28T21:58:59.072Z,3.50
2024-01-28T22:01:28.101Z,4.63
2024-01-28T22:03:55.739Z,3.67
2024-01-28T22:06:24.408Z,2.80
2024-01-28T22:08:51.878Z,4.17
2024-01-28T22:11:19.349Z,2.97
2024-01-28T22:13:46.851Z,3.93
2024-01-28T22:16:15.010Z,2.57
2024-01-28T22:18:43.845Z,3.60
2024-01-28T22:21:11.368Z,3.00
2024-01-28T22:23:39.465Z,2.90
2024-01-28T22:26:07.420Z,2.70
2024-01-28T22:28:35.744Z,2.50
2024-01-28T22:31:03.522Z,2.60
2024-01-28T22:33:31.175Z,2.53
2024-01-28T22:36:00.032Z,2.60
2024-01-28T22:38:27.498Z,2.50
2024-01-28T22:40:55.051Z,2.70
2024-01-28T22:43:22.584Z,2.67
2024-01-28T22:45:50.146Z,2.40
2024-01-28T22:48:17.847Z,2.73
2024-01-28T22:50:45.421Z,2.63
2024-01-28T22:53:15.689Z,2.63
2024-01-28T22:55:43.115Z,2.90
2024-01-28T22:58:10.662Z,2.40
2024-01-28T23:00:44.765Z,2.97
2024-01-28T23:03:12.642Z,2.60
2024-01-28T23:05:40.422Z,2.60
2024-01-28T23:08:08.183Z,2.70
2024-01-28T23:10:38.352Z,2.53
2024-01-28T23:13:06.734Z,2.70
2024-01-28T23:15:35.204Z,2.80
2024-01-28T23:18:02.951Z,2.70
2024-01-28T23:20:32.458Z,2.90
2024-01-28T23:22:59.933Z,2.53
2024-01-28T23:25:27.660Z,2.50
2024-01-28T23:27:56.509Z,2.53
2024-01-28T23:30:25.009Z,2.63
2024-01-28T23:32:52.654Z,2.80
2024-01-28T23:35:20.182Z,2.27
2024-01-28T23:37:47.680Z,2.60
2024-01-28T23:40:15.380Z,2.50
2024-01-28T23:42:45.019Z,2.70
2024-01-28T23:45:15.193Z,2.40
2024-01-28T23:47:42.997Z,2.77
2024-01-28T23:50:11.006Z,2.83
2024-01-28T23:52:38.475Z,2.73
2024-01-28T23:55:06.613Z,2.77
2024-01-28T23:57:34.314Z,2.70
